Easton, Washington
Current Conditions -  °F | °C
As of 1:53 AM on Saturday 25 Oct 2014 (Local Time) from KELN Reporting Station
Overcast Overcast  
Wind Chill: 48°   Ceiling: 4600
Heat Index: 48°   Visibility: 9mi
Dew Point: 44°   Wind: 0mph
Humidity: 86%   Direction: NA
Pressure: 29.82"   Gusts: NA
Location:  47.24°N, 121.18°W
Report Text: KELN 250853Z AUTO 00000KT 9SM OVC046 09/07 A2982 RMK AO2 SLP102 T00890067 58030
Loading
Personal Weather Stations






























Interactive Weather Map
Tropical Storm Tracking
New forecast layout! Learn more

10-Day Weather Forecast

Advertisements
Track Severe Weather on mobile